Time,TemperatureF,DewpointF,PressureIn,WindDirection,WindDirectionDegrees,WindSpeedMPH,WindSpeedGustMPH,Humidity,HourlyPrecipIn,Conditions,Clouds,dailyrainin,SoftwareType,DateUTC
2013-05-12 00:01:00,38.8,32.6,29.94,SSW,202,0.0,1.3,78,0.00,,---,0.00,VWS V14.00,2013-05-12 04:01:00,
2013-05-12 00:02:00,38.8,32.6,29.94,SSW,202,0.0,0.0,78,0.00,,---,0.00,VWS V14.00,2013-05-12 04:02:00,
2013-05-12 00:07:00,38.8,32.9,29.94,SSW,202,0.0,0.0,79,0.00,,---,0.00,VWS V14.00,2013-05-12 04:07:00,
2013-05-12 00:12:00,38.7,33.0,29.94,South,180,0.9,0.9,80,0.00,,---,0.00,VWS V14.00,2013-05-12 04:12:00,
2013-05-12 00:17:00,38.5,33.2,29.94,SSW,202,0.0,1.1,81,0.00,,---,0.00,VWS V14.00,2013-05-12 04:17:00,
2013-05-12 00:22:00,38.5,33.2,29.94,SSW,202,0.0,0.0,81,0.00,,---,0.00,VWS V14.00,2013-05-12 04:22:00,
2013-05-12 00:27:00,38.5,33.5,29.94,SSW,202,0.0,0.0,82,0.00,,---,0.00,VWS V14.00,2013-05-12 04:27:00,
2013-05-12 00:33:00,38.3,33.3,29.94,SSW,202,0.9,1.3,82,0.00,,---,0.00,VWS V14.00,2013-05-12 04:33:00,
2013-05-12 00:38:00,38.3,33.6,29.94,SSW,202,0.0,0.0,83,0.00,,---,0.00,VWS V14.00,2013-05-12 04:38:00,
2013-05-12 00:43:00,38.1,33.4,29.94,SW,225,2.2,2.2,83,0.00,,---,0.00,VWS V14.00,2013-05-12 04:43:00,
2013-05-12 00:48:00,38.1,33.7,29.91,SW,225,0.0,0.0,84,0.00,,---,0.00,VWS V14.00,2013-05-12 04:48:00,
2013-05-12 00:53:00,38.1,33.7,29.91,West,270,0.0,1.1,84,0.00,,---,0.00,VWS V14.00,2013-05-12 04:53:00,
2013-05-12 00:58:00,38.1,34.0,29.91,West,270,0.0,0.0,85,0.00,,---,0.00,VWS V14.00,2013-05-12 04:58:00,
2013-05-12 01:03:00,38.1,34.0,29.94,SW,225,1.3,1.3,85,0.00,,---,0.00,VWS V14.00,2013-05-12 05:03:00,
2013-05-12 01:08:00,38.1,34.0,29.94,SW,225,1.6,1.6,85,0.00,,---,0.00,VWS V14.00,2013-05-12 05:08:00,
2013-05-12 01:13:00,38.1,34.0,29.94,SSW,202,2.0,2.2,85,0.00,,---,0.00,VWS V14.00,2013-05-12 05:13:00,
2013-05-12 01:18:00,38.1,34.0,29.94,WSW,248,1.1,1.1,85,0.00,,---,0.00,VWS V14.00,2013-05-12 05:18:00,
2013-05-12 01:23:00,38.1,34.0,29.94,WSW,248,0.0,0.9,85,0.00,,---,0.00,VWS V14.00,2013-05-12 05:23:00,
2013-05-12 01:28:00,38.3,34.2,29.94,WSW,248,0.0,0.0,85,0.00,,---,0.00,VWS V14.00,2013-05-12 05:28:00,
2013-05-12 01:33:00,38.3,34.2,29.94,SSW,202,1.3,1.3,85,0.00,,---,0.00,VWS V14.00,2013-05-12 05:33:00,
2013-05-12 01:38:00,38.5,34.4,29.94,SSE,158,0.0,0.0,85,0.00,,---,0.00,VWS V14.00,2013-05-12 05:38:00,
2013-05-12 01:44:00,38.5,34.4,29.94,SSW,202,0.0,0.0,85,0.00,,---,0.00,VWS V14.00,2013-05-12 05:44:00,
2013-05-12 01:49:00,38.5,34.1,29.97,SW,225,0.0,0.0,84,0.00,,---,0.00,VWS V14.00,2013-05-12 05:49:00,
2013-05-12 01:54:00,38.5,34.1,29.97,SW,225,0.0,0.0,84,0.00,,---,0.00,VWS V14.00,2013-05-12 05:54:00,
2013-05-12 01:59:00,38.5,34.1,29.97,SW,225,0.0,0.0,84,0.00,,---,0.00,VWS V14.00,2013-05-12 05:59:00,
2013-05-12 02:04:00,38.5,33.8,29.97,South,180,0.9,0.9,83,0.00,,---,0.00,VWS V14.00,2013-05-12 06:04:00,
2013-05-12 02:09:00,38.7,34.0,29.97,SSW,202,0.0,1.3,83,0.00,,---,0.00,VWS V14.00,2013-05-12 06:09:00,
2013-05-12 02:14:00,38.7,34.0,29.97,SW,225,0.0,0.0,83,0.00,,---,0.00,VWS V14.00,2013-05-12 06:14:00,
2013-05-12 02:19:00,38.7,34.0,29.97,SW,225,0.9,0.9,83,0.00,,---,0.00,VWS V14.00,2013-05-12 06:19:00,
2013-05-12 02:24:00,38.7,34.0,29.97,WNW,292,1.3,1.6,83,0.00,,---,0.00,VWS V14.00,2013-05-12 06:24:00,
2013-05-12 02:29:00,38.5,33.8,29.97,SSW,202,0.0,0.0,83,0.00,,---,0.00,VWS V14.00,2013-05-12 06:29:00,
2013-05-12 02:34:00,38.5,33.8,29.94,SW,225,0.0,0.0,83,0.00,,---,0.00,VWS V14.00,2013-05-12 06:34:00,
2013-05-12 02:39:00,38.5,33.5,29.94,WSW,248,1.1,1.3,82,0.00,,---,0.00,VWS V14.00,2013-05-12 06:39:00,
2013-05-12 02:45:00,38.3,33.6,29.94,WSW,248,0.9,2.5,83,0.00,,---,0.00,VWS V14.00,2013-05-12 06:45:00,
2013-05-12 02:50:00,38.3,33.6,29.94,SW,225,0.0,0.0,83,0.00,,---,0.00,VWS V14.00,2013-05-12 06:50:00,
2013-05-12 02:55:00,38.1,33.4,29.94,SW,225,0.0,1.1,83,0.00,,---,0.00,VWS V14.00,2013-05-12 06:55:00,
2013-05-12 03:00:00,38.1,33.4,29.94,WSW,248,0.0,0.0,83,0.00,,---,0.00,VWS V14.00,2013-05-12 07:00:00,
2013-05-12 03:05:00,37.9,33.2,29.94,North,0,0.0,0.0,83,0.00,,---,0.00,VWS V14.00,2013-05-12 07:05:00,
2013-05-12 03:10:00,37.9,33.2,29.94,SSW,202,0.0,0.0,83,0.00,,---,0.00,VWS V14.00,2013-05-12 07:10:00,
2013-05-12 03:15:00,37.9,33.2,29.94,WSW,248,0.0,0.0,83,0.00,,---,0.00,VWS V14.00,2013-05-12 07:15:00,
2013-05-12 03:20:00,37.8,33.1,29.94,SW,225,0.0,0.0,83,0.00,,---,0.00,VWS V14.00,2013-05-12 07:20:00,
2013-05-12 03:25:00,37.8,33.1,29.94,NE,45,1.3,2.5,83,0.00,,---,0.00,VWS V14.00,2013-05-12 07:25:00,
2013-05-12 03:30:00,37.8,33.1,29.94,SW,225,0.0,0.0,83,0.00,,---,0.00,VWS V14.00,2013-05-12 07:30:00,
2013-05-12 03:35:00,37.8,32.8,29.94,WSW,248,1.6,1.6,82,0.00,,---,0.00,VWS V14.00,2013-05-12 07:35:00,
2013-05-12 03:40:00,37.9,33.0,29.94,SW,225,1.1,2.9,82,0.00,,---,0.00,VWS V14.00,2013-05-12 07:40:00,
2013-05-12 03:45:00,37.9,33.0,29.94,WSW,248,0.0,0.0,82,0.00,,---,0.00,VWS V14.00,2013-05-12 07:45:00,
2013-05-12 03:51:00,37.9,33.0,29.94,WSW,248,0.9,1.6,82,0.00,,---,0.00,VWS V14.00,2013-05-12 07:51:00,
2013-05-12 03:56:00,37.8,32.5,29.94,WNW,292,1.1,1.3,81,0.00,,---,0.00,VWS V14.00,2013-05-12 07:56:00,
2013-05-12 04:01:00,37.8,32.5,29.94,WNW,292,2.0,2.0,81,0.00,,---,0.00,VWS V14.00,2013-05-12 08:01:00,
2013-05-12 04:06:00,37.6,32.3,29.94,WSW,248,2.5,2.9,81,0.00,,---,0.00,VWS V14.00,2013-05-12 08:06:00,
2013-05-12 04:11:00,37.6,32.3,29.94,WSW,248,1.1,3.8,81,0.00,,---,0.00,VWS V14.00,2013-05-12 08:11:00,
2013-05-12 04:16:00,37.6,31.7,29.94,WSW,248,0.0,1.3,79,0.00,,---,0.00,VWS V14.00,2013-05-12 08:16:00,
2013-05-12 04:21:00,37.6,31.7,29.94,West,270,1.1,1.1,79,0.00,,---,0.00,VWS V14.00,2013-05-12 08:21:00,
2013-05-12 04:26:00,37.6,31.7,29.94,North,0,3.6,3.6,79,0.00,,---,0.00,VWS V14.00,2013-05-12 08:26:00,
2013-05-12 04:31:00,37.6,31.4,29.97,NE,45,0.0,0.0,78,0.00,,---,0.00,VWS V14.00,2013-05-12 08:31:00,
2013-05-12 04:36:00,37.8,31.5,29.97,WSW,248,2.2,2.2,78,0.00,,---,0.00,VWS V14.00,2013-05-12 08:36:00,
2013-05-12 04:41:00,37.8,31.2,29.97,SW,225,0.9,1.3,77,0.00,,---,0.00,VWS V14.00,2013-05-12 08:41:00,
2013-05-12 04:46:00,37.8,31.2,29.97,South,180,4.3,4.3,77,0.00,,---,0.00,VWS V14.00,2013-05-12 08:46:00,
2013-05-12 04:51:00,37.9,31.1,29.97,WSW,248,1.3,1.3,76,0.00,,---,0.00,VWS V14.00,2013-05-12 08:51:00,
2013-05-12 04:57:00,37.8,29.9,29.97,SW,225,2.0,4.7,73,0.00,,---,0.00,VWS V14.00,2013-05-12 08:57:00,
2013-05-12 05:02:00,37.8,29.6,29.97,WSW,248,5.8,5.8,72,0.00,,---,0.00,VWS V14.00,2013-05-12 09:02:00,
2013-05-12 05:07:00,37.8,29.6,29.97,WNW,292,2.0,2.2,72,0.00,,---,0.00,VWS V14.00,2013-05-12 09:07:00,
2013-05-12 05:12:00,37.6,28.7,29.97,NNE,22,1.6,2.5,70,0.00,,---,0.00,VWS V14.00,2013-05-12 09:12:00,
2013-05-12 05:17:00,37.4,28.5,29.97,NNE,22,2.7,2.7,70,0.00,,---,0.00,VWS V14.00,2013-05-12 09:17:00,
2013-05-12 05:22:00,37.4,28.5,29.97,WSW,248,1.3,1.3,70,0.00,,---,0.00,VWS V14.00,2013-05-12 09:22:00,
2013-05-12 05:27:00,37.4,28.9,29.97,South,180,1.3,2.2,71,0.00,,---,0.00,VWS V14.00,2013-05-12 09:27:00,
2013-05-12 05:32:00,37.0,28.5,29.97,NNW,338,0.0,0.0,71,0.00,,---,0.00,VWS V14.00,2013-05-12 09:32:00,
2013-05-12 05:37:00,37.0,28.5,29.97,SE,135,0.0,2.0,71,0.00,,---,0.00,VWS V14.00,2013-05-12 09:37:00,
2013-05-12 05:42:00,36.9,28.4,29.97,SSW,202,1.3,1.3,71,0.00,,---,0.00,VWS V14.00,2013-05-12 09:42:00,
2013-05-12 05:47:00,36.9,28.4,29.97,South,180,0.0,0.9,71,0.00,,---,0.00,VWS V14.00,2013-05-12 09:47:00,
2013-05-12 05:52:00,36.7,27.8,29.97,WNW,292,1.3,1.3,70,0.00,,---,0.00,VWS V14.00,2013-05-12 09:52:00,
2013-05-12 05:57:00,36.9,28.0,29.97,North,0,0.0,1.1,70,0.00,,---,0.00,VWS V14.00,2013-05-12 09:57:00,
2013-05-12 06:02:00,36.9,28.4,29.97,SE,135,2.0,2.0,71,0.00,,---,0.00,VWS V14.00,2013-05-12 10:02:00,
2013-05-12 06:07:00,36.9,28.0,29.97,NNE,22,2.7,5.6,70,0.00,,---,0.00,VWS V14.00,2013-05-12 10:07:00,
2013-05-12 06:12:00,36.9,27.7,29.97,NW,315,1.6,2.2,69,0.00,,---,0.00,VWS V14.00,2013-05-12 10:12:00,
2013-05-12 06:17:00,36.9,27.7,29.97,West,270,6.3,6.3,69,0.00,,---,0.00,VWS V14.00,2013-05-12 10:17:00,
2013-05-12 06:23:00,36.9,27.3,29.97,SSW,202,1.6,2.0,68,0.00,,---,0.00,VWS V14.00,2013-05-12 10:23:00,
2013-05-12 06:28:00,36.9,27.3,29.97,NNW,338,1.1,2.0,68,0.00,,---,0.00,VWS V14.00,2013-05-12 10:28:00,
2013-05-12 06:33:00,36.9,27.7,30.00,West,270,0.0,0.0,69,0.00,,---,0.00,VWS V14.00,2013-05-12 10:33:00,
2013-05-12 06:38:00,36.9,27.7,30.00,WNW,292,1.1,2.0,69,0.00,,---,0.00,VWS V14.00,2013-05-12 10:38:00,
2013-05-12 06:43:00,36.9,27.3,30.00,North,0,3.4,3.4,68,0.00,,---,0.00,VWS V14.00,2013-05-12 10:43:00,
2013-05-12 06:48:00,36.7,27.5,30.00,NE,45,2.7,2.7,69,0.00,,---,0.00,VWS V14.00,2013-05-12 10:48:00,
2013-05-12 06:53:00,36.9,27.7,30.00,WSW,248,0.0,0.0,69,0.00,,---,0.00,VWS V14.00,2013-05-12 10:53:00,
2013-05-12 06:58:00,36.7,27.5,30.00,SSE,158,3.4,3.4,69,0.00,,---,0.00,VWS V14.00,2013-05-12 10:58:00,
2013-05-12 07:03:00,36.7,27.5,29.97,NNE,22,5.4,5.4,69,0.00,,---,0.00,VWS V14.00,2013-05-12 11:03:00,
2013-05-12 07:09:00,36.9,28.0,29.97,WSW,248,0.0,1.3,70,0.00,,---,0.00,VWS V14.00,2013-05-12 11:09:00,
2013-05-12 07:14:00,36.9,27.7,29.97,SSW,202,2.9,2.9,69,0.00,,---,0.00,VWS V14.00,2013-05-12 11:14:00,
2013-05-12 07:19:00,37.0,27.8,29.97,WSW,248,0.0,1.6,69,0.00,,---,0.00,VWS V14.00,2013-05-12 11:19:00,
2013-05-12 07:24:00,37.0,28.2,29.97,NNW,338,1.1,2.0,70,0.00,,---,0.00,VWS V14.00,2013-05-12 11:24:00,
2013-05-12 07:29:00,37.4,27.8,29.97,NE,45,2.0,3.1,68,0.00,,---,0.00,VWS V14.00,2013-05-12 11:29:00,
2013-05-12 07:34:00,37.6,28.0,29.97,NW,315,5.6,5.6,68,0.00,,---,0.00,VWS V14.00,2013-05-12 11:34:00,
2013-05-12 07:39:00,37.9,28.0,29.97,SSW,202,1.1,1.3,67,0.00,,---,0.00,VWS V14.00,2013-05-12 11:39:00,
2013-05-12 07:44:00,38.1,28.5,29.97,NNE,22,4.7,4.7,68,0.00,,---,0.00,VWS V14.00,2013-05-12 11:44:00,
2013-05-12 07:49:00,38.5,28.5,29.97,NNE,22,0.9,1.3,67,0.00,,---,0.00,VWS V14.00,2013-05-12 11:49:00,
2013-05-12 07:55:00,38.5,28.1,29.97,NNW,338,2.7,2.9,66,0.00,,---,0.00,VWS V14.00,2013-05-12 11:55:00,
2013-05-12 08:00:00,38.7,27.9,29.97,NNE,22,2.0,2.0,65,0.00,,---,0.00,VWS V14.00,2013-05-12 12:00:00,
2013-05-12 08:05:00,38.7,27.5,29.97,North,0,2.5,2.7,64,0.00,,---,0.00,VWS V14.00,2013-05-12 12:05:00,
2013-05-12 08:10:00,38.7,27.2,29.97,NE,45,2.7,2.7,63,0.00,,---,0.00,VWS V14.00,2013-05-12 12:10:00,
2013-05-12 08:15:00,38.8,27.3,29.97,NNW,338,6.5,6.5,63,0.00,,---,0.00,VWS V14.00,2013-05-12 12:15:00,
2013-05-12 08:20:00,38.8,27.0,29.97,NNW,338,4.0,4.9,62,0.00,,---,0.00,VWS V14.00,2013-05-12 12:20:00,
2013-05-12 08:25:00,39.0,26.3,29.97,SSE,158,1.1,2.9,60,0.00,,---,0.00,VWS V14.00,2013-05-12 12:25:00,
2013-05-12 08:30:00,39.4,26.7,29.97,WSW,248,2.5,2.5,60,0.00,,---,0.00,VWS V14.00,2013-05-12 12:30:00,
2013-05-12 08:35:00,39.9,27.2,29.97,North,0,5.6,5.8,60,0.00,,---,0.00,VWS V14.00,2013-05-12 12:35:00,
2013-05-12 08:40:00,40.1,26.9,29.97,ESE,112,1.6,1.6,59,0.00,,---,0.00,VWS V14.00,2013-05-12 12:40:00,
2013-05-12 08:45:00,40.1,26.5,29.97,West,270,2.5,2.5,58,0.00,,---,0.00,VWS V14.00,2013-05-12 12:45:00,
2013-05-12 08:50:00,40.3,26.7,29.97,SW,225,1.3,2.0,58,0.00,,---,0.00,VWS V14.00,2013-05-12 12:50:00,
2013-05-12 08:55:00,40.5,26.4,29.97,West,270,0.9,2.2,57,0.00,,---,0.00,VWS V14.00,2013-05-12 12:55:00,
2013-05-12 09:00:00,41.2,26.7,29.97,NNW,338,0.9,0.9,56,0.00,,---,0.00,VWS V14.00,2013-05-12 13:00:00,
2013-05-12 09:05:00,41.2,25.8,29.97,NE,45,1.3,1.6,54,0.00,,---,0.00,VWS V14.00,2013-05-12 13:05:00,
2013-05-12 09:11:00,41.2,25.4,29.97,SW,225,3.1,3.1,53,0.00,,---,0.00,VWS V14.00,2013-05-12 13:11:00,
2013-05-12 09:16:00,41.2,25.4,30.00,WNW,292,1.3,1.3,53,0.00,,---,0.00,VWS V14.00,2013-05-12 13:16:00,
2013-05-12 09:21:00,41.5,27.0,30.00,West,270,1.6,2.0,56,0.00,,---,0.00,VWS V14.00,2013-05-12 13:21:00,
2013-05-12 09:26:00,41.7,27.2,30.00,WNW,292,2.7,2.7,56,0.00,,---,0.00,VWS V14.00,2013-05-12 13:26:00,
2013-05-12 09:31:00,41.9,27.4,30.00,South,180,1.3,3.8,56,0.00,,---,0.00,VWS V14.00,2013-05-12 13:31:00,
2013-05-12 09:36:00,41.7,26.3,30.00,NE,45,2.9,3.8,54,0.00,,---,0.00,VWS V14.00,2013-05-12 13:36:00,
2013-05-12 09:41:00,41.4,26.0,30.00,SSE,158,1.3,1.3,54,0.00,,---,0.00,VWS V14.00,2013-05-12 13:41:00,
2013-05-12 09:46:00,41.0,25.6,30.00,WSW,248,2.2,2.2,54,0.00,,---,0.00,VWS V14.00,2013-05-12 13:46:00,
2013-05-12 09:51:00,41.0,26.1,30.00,WNW,292,2.5,3.4,55,0.00,,---,0.00,VWS V14.00,2013-05-12 13:51:00,
2013-05-12 09:56:00,41.2,26.7,30.00,SSE,158,1.3,2.7,56,0.00,,---,0.00,VWS V14.00,2013-05-12 13:56:00,
2013-05-12 10:02:00,41.7,27.2,30.00,East,90,4.9,4.9,56,0.00,,---,0.00,VWS V14.00,2013-05-12 14:02:00,
2013-05-12 10:07:00,41.5,26.1,30.00,NW,315,3.4,6.3,54,0.00,,---,0.00,VWS V14.00,2013-05-12 14:07:00,
2013-05-12 10:12:00,41.7,27.2,30.00,WSW,248,3.8,4.3,56,0.00,,---,0.00,VWS V14.00,2013-05-12 14:12:00,
2013-05-12 10:17:00,41.7,27.2,30.00,NNE,22,0.0,2.0,56,0.00,,---,0.00,VWS V14.00,2013-05-12 14:17:00,
2013-05-12 10:22:00,41.7,27.2,30.00,West,270,1.6,2.7,56,0.00,,---,0.00,VWS V14.00,2013-05-12 14:22:00,
2013-05-12 10:27:00,42.3,27.3,30.00,NNW,338,2.2,3.6,55,0.00,,---,0.00,VWS V14.00,2013-05-12 14:27:00,
2013-05-12 10:32:00,42.4,27.4,30.00,SE,135,1.3,2.2,55,0.00,,---,0.00,VWS V14.00,2013-05-12 14:32:00,
2013-05-12 10:37:00,42.8,28.2,30.00,West,270,2.7,2.7,56,0.00,,---,0.00,VWS V14.00,2013-05-12 14:37:00,
2013-05-12 10:42:00,42.8,27.8,30.00,SE,135,4.9,4.9,55,0.00,,---,0.00,VWS V14.00,2013-05-12 14:42:00,
2013-05-12 10:47:00,42.1,26.2,30.00,North,0,2.0,3.6,53,0.00,,---,0.00,VWS V14.00,2013-05-12 14:47:00,
2013-05-12 10:52:00,42.1,26.6,30.00,ENE,68,3.6,3.6,54,0.00,,---,0.00,VWS V14.00,2013-05-12 14:52:00,
2013-05-12 10:58:00,42.3,27.3,30.00,SW,225,2.7,2.7,55,0.00,,---,0.00,VWS V14.00,2013-05-12 14:58:00,
2013-05-12 11:03:00,42.4,27.4,30.00,NNW,338,2.0,4.3,55,0.00,,---,0.00,VWS V14.00,2013-05-12 15:03:00,
2013-05-12 11:08:00,42.6,27.6,30.00,West,270,1.6,2.9,55,0.00,,---,0.00,VWS V14.00,2013-05-12 15:08:00,
2013-05-12 11:13:00,43.0,27.9,30.00,North,0,4.0,4.0,55,0.00,,---,0.00,VWS V14.00,2013-05-12 15:13:00,
2013-05-12 11:18:00,43.5,28.4,30.00,North,0,1.6,2.0,55,0.00,,---,0.00,VWS V14.00,2013-05-12 15:18:00,
2013-05-12 11:23:00,43.9,28.8,30.00,West,270,2.5,2.5,55,0.00,,---,0.00,VWS V14.00,2013-05-12 15:23:00,
2013-05-12 11:28:00,43.9,28.8,30.00,South,180,0.9,0.9,55,0.00,,---,0.00,VWS V14.00,2013-05-12 15:28:00,
2013-05-12 11:33:00,43.7,27.7,30.00,SSW,202,4.3,4.3,53,0.00,,---,0.00,VWS V14.00,2013-05-12 15:33:00,
2013-05-12 11:38:00,44.2,28.7,30.00,SW,225,4.7,4.7,54,0.00,,---,0.00,VWS V14.00,2013-05-12 15:38:00,
2013-05-12 11:43:00,44.1,28.0,30.00,ENE,68,3.1,3.4,53,0.00,,---,0.00,VWS V14.00,2013-05-12 15:43:00,
2013-05-12 11:49:00,44.1,28.0,30.03,NNW,338,1.3,2.9,53,0.00,,---,0.00,VWS V14.00,2013-05-12 15:49:00,
2013-05-12 11:54:00,44.1,28.0,30.03,SSE,158,0.9,2.9,53,0.00,,---,0.00,VWS V14.00,2013-05-12 15:54:00,
2013-05-12 11:59:00,43.9,28.3,30.03,WSW,248,1.1,2.9,54,0.00,,---,0.00,VWS V14.00,2013-05-12 15:59:00,
2013-05-12 12:04:00,44.1,28.5,30.03,West,270,1.1,1.6,54,0.00,,---,0.00,VWS V14.00,2013-05-12 16:04:00,
2013-05-12 12:09:00,43.5,27.5,30.03,NNW,338,2.7,3.4,53,0.00,,---,0.00,VWS V14.00,2013-05-12 16:09:00,
2013-05-12 12:14:00,43.7,28.6,30.03,West,270,2.7,3.1,55,0.00,,---,0.00,VWS V14.00,2013-05-12 16:14:00,
2013-05-12 12:19:00,43.7,28.2,30.03,SE,135,2.0,2.9,54,0.00,,---,0.00,VWS V14.00,2013-05-12 16:19:00,
2013-05-12 12:24:00,43.9,28.3,30.03,WSW,248,2.2,3.4,54,0.00,,---,0.00,VWS V14.00,2013-05-12 16:24:00,
2013-05-12 12:29:00,44.1,28.0,30.03,SSW,202,2.0,3.4,53,0.00,,---,0.00,VWS V14.00,2013-05-12 16:29:00,
2013-05-12 12:34:00,44.2,28.7,30.03,North,0,1.1,2.2,54,0.00,,---,0.00,VWS V14.00,2013-05-12 16:34:00,
2013-05-12 12:39:00,44.8,28.7,30.03,WNW,292,1.3,1.3,53,0.00,,---,0.00,VWS V14.00,2013-05-12 16:39:00,
2013-05-12 12:44:00,44.8,28.2,30.03,WNW,292,3.6,3.6,52,0.00,,---,0.00,VWS V14.00,2013-05-12 16:44:00,
2013-05-12 12:49:00,45.3,29.2,30.03,NE,45,2.5,2.5,53,0.00,,---,0.00,VWS V14.00,2013-05-12 16:49:00,
2013-05-12 12:54:00,45.3,28.3,30.03,NNW,338,2.0,2.9,51,0.00,,---,0.00,VWS V14.00,2013-05-12 16:54:00,
2013-05-12 12:59:00,45.3,28.8,30.03,WSW,248,1.3,2.2,52,0.00,,---,0.00,VWS V14.00,2013-05-12 16:59:00,
2013-05-12 13:04:00,46.2,30.0,30.03,South,180,2.7,2.7,53,0.00,,---,0.00,VWS V14.00,2013-05-12 17:04:00,
2013-05-12 13:09:00,46.2,29.6,30.03,ENE,68,4.9,4.9,52,0.00,,---,0.00,VWS V14.00,2013-05-12 17:09:00,
2013-05-12 13:14:00,45.7,28.1,30.03,South,180,1.6,2.5,50,0.00,,---,0.00,VWS V14.00,2013-05-12 17:14:00,
2013-05-12 13:19:00,45.0,27.5,30.06,West,270,3.1,3.1,50,0.00,,---,0.00,VWS V14.00,2013-05-12 17:19:00,
2013-05-12 13:24:00,45.1,28.6,30.06,SW,225,4.0,4.0,52,0.00,,---,0.00,VWS V14.00,2013-05-12 17:24:00,
2013-05-12 13:30:00,44.8,27.8,30.06,WNW,292,3.6,3.6,51,0.00,,---,0.00,VWS V14.00,2013-05-12 17:30:00,
2013-05-12 13:35:00,44.8,27.8,30.06,NNE,22,3.1,3.1,51,0.00,,---,0.00,VWS V14.00,2013-05-12 17:35:00,
2013-05-12 13:40:00,45.1,28.6,30.06,ENE,68,4.3,5.4,52,0.00,,---,0.00,VWS V14.00,2013-05-12 17:40:00,
2013-05-12 13:45:00,45.0,28.4,30.06,SSW,202,2.0,2.5,52,0.00,,---,0.00,VWS V14.00,2013-05-12 17:45:00,
2013-05-12 13:50:00,44.6,28.1,30.06,WNW,292,2.0,4.9,52,0.00,,---,0.00,VWS V14.00,2013-05-12 17:50:00,
2013-05-12 13:55:00,44.2,27.3,30.06,East,90,3.6,5.4,51,0.00,,---,0.00,VWS V14.00,2013-05-12 17:55:00,
2013-05-12 14:00:00,44.8,28.2,30.09,NW,315,1.1,3.6,52,0.00,,---,0.00,VWS V14.00,2013-05-12 18:00:00,
2013-05-12 14:05:00,45.1,28.6,30.09,NNW,338,3.8,3.8,52,0.00,,---,0.00,VWS V14.00,2013-05-12 18:05:00,
2013-05-12 14:10:00,45.1,27.6,30.09,WNW,292,2.2,3.6,50,0.00,,---,0.00,VWS V14.00,2013-05-12 18:10:00,
2013-05-12 14:15:00,45.7,28.1,30.06,North,0,1.3,3.4,50,0.00,,---,0.00,VWS V14.00,2013-05-12 18:15:00,
2013-05-12 14:20:00,46.2,29.1,30.06,WSW,248,2.9,4.9,51,0.00,,---,0.00,VWS V14.00,2013-05-12 18:20:00,
2013-05-12 14:25:00,46.4,28.8,30.06,WNW,292,5.8,5.8,50,0.00,,---,0.00,VWS V14.00,2013-05-12 18:25:00,
2013-05-12 14:30:00,45.7,28.6,30.06,NNE,22,1.1,2.5,51,0.00,,---,0.00,VWS V14.00,2013-05-12 18:30:00,
2013-05-12 14:35:00,45.1,27.6,30.06,SSW,202,2.2,4.3,50,0.00,,---,0.00,VWS V14.00,2013-05-12 18:35:00,
2013-05-12 14:40:00,45.5,28.4,30.06,NNE,22,1.1,5.4,51,0.00,,---,0.00,VWS V14.00,2013-05-12 18:40:00,
2013-05-12 14:45:00,45.9,29.2,30.03,WNW,292,3.8,3.8,52,0.00,,---,0.00,VWS V14.00,2013-05-12 18:45:00,
2013-05-12 14:50:00,45.3,27.8,30.03,North,0,2.2,4.3,50,0.00,,---,0.00,VWS V14.00,2013-05-12 18:50:00,
2013-05-12 14:55:00,46.2,28.6,30.03,NNW,338,2.0,2.7,50,0.00,,---,0.00,VWS V14.00,2013-05-12 18:55:00,
2013-05-12 15:00:00,45.9,27.8,30.06,SSW,202,2.2,2.5,49,0.00,,---,0.00,VWS V14.00,2013-05-12 19:00:00,
2013-05-12 15:05:00,44.8,26.3,30.06,WSW,248,2.0,2.7,48,0.00,,---,0.00,VWS V14.00,2013-05-12 19:05:00,
2013-05-12 15:10:00,44.8,27.3,30.06,NE,45,1.3,2.7,50,0.00,,---,0.00,VWS V14.00,2013-05-12 19:10:00,
2013-05-12 15:15:00,45.1,27.6,30.06,West,270,2.7,3.6,50,0.00,,---,0.00,VWS V14.00,2013-05-12 19:15:00,
2013-05-12 15:20:00,45.7,28.1,30.06,SW,225,2.0,2.5,50,0.00,,---,0.00,VWS V14.00,2013-05-12 19:20:00,
2013-05-12 15:25:00,45.5,27.5,30.06,WSW,248,3.1,4.0,49,0.00,,---,0.00,VWS V14.00,2013-05-12 19:25:00,
2013-05-12 15:30:00,45.3,26.8,30.06,SW,225,2.9,4.7,48,0.00,,---,0.00,VWS V14.00,2013-05-12 19:30:00,
2013-05-12 15:35:00,44.8,25.8,30.06,North,0,1.6,3.1,47,0.00,,---,0.00,VWS V14.00,2013-05-12 19:35:00,
2013-05-12 15:40:00,44.8,26.3,30.06,WSW,248,1.3,2.7,48,0.00,,---,0.00,VWS V14.00,2013-05-12 19:40:00,
2013-05-12 15:45:00,45.7,27.6,30.06,West,270,2.7,3.4,49,0.00,,---,0.00,VWS V14.00,2013-05-12 19:45:00,
2013-05-12 15:50:00,45.9,27.3,30.06,WSW,248,3.6,3.8,48,0.00,,---,0.00,VWS V14.00,2013-05-12 19:50:00,
2013-05-12 15:55:00,45.5,27.0,30.06,SW,225,2.2,2.7,48,0.00,,---,0.00,VWS V14.00,2013-05-12 19:55:00,
2013-05-12 16:00:00,45.9,27.3,30.06,West,270,2.9,2.9,48,0.00,,---,0.00,VWS V14.00,2013-05-12 20:00:00,
2013-05-12 16:05:00,46.4,27.8,30.06,SSE,158,1.1,2.5,48,0.00,,---,0.00,VWS V14.00,2013-05-12 20:05:00,
2013-05-12 16:10:00,46.4,27.8,30.06,NNE,22,2.9,3.1,48,0.00,,---,0.00,VWS V14.00,2013-05-12 20:10:00,
2013-05-12 16:15:00,46.4,27.3,30.06,SSW,202,1.6,3.8,47,0.00,,---,0.00,VWS V14.00,2013-05-12 20:15:00,
2013-05-12 16:20:00,46.8,27.6,30.06,SSE,158,2.7,7.4,47,0.00,,---,0.00,VWS V14.00,2013-05-12 20:20:00,
2013-05-12 16:25:00,46.4,26.8,30.06,SW,225,1.6,7.2,46,0.00,,---,0.00,VWS V14.00,2013-05-12 20:25:00,
2013-05-12 16:30:00,46.6,26.4,30.06,NNW,338,4.3,4.3,45,0.00,,---,0.00,VWS V14.00,2013-05-12 20:30:00,
2013-05-12 16:35:00,46.4,27.3,30.06,WNW,292,2.0,3.1,47,0.00,,---,0.00,VWS V14.00,2013-05-12 20:35:00,
2013-05-12 16:40:00,46.4,26.8,30.06,WSW,248,2.7,2.7,46,0.00,,---,0.00,VWS V14.00,2013-05-12 20:40:00,
2013-05-12 16:45:00,47.3,28.1,30.06,NNE,22,2.0,2.0,47,0.00,,---,0.00,VWS V14.00,2013-05-12 20:45:00,
2013-05-12 16:50:00,47.3,27.6,30.06,NNE,22,2.5,4.3,46,0.00,,---,0.00,VWS V14.00,2013-05-12 20:50:00,
2013-05-12 16:55:00,46.9,26.7,30.06,SE,135,3.1,3.8,45,0.00,,---,0.00,VWS V14.00,2013-05-12 20:55:00,
2013-05-12 17:00:00,46.2,25.5,30.03,North,0,2.0,2.5,44,0.00,,---,0.00,VWS V14.00,2013-05-12 21:00:00,
2013-05-12 17:05:00,46.0,25.9,30.03,SSW,202,2.0,3.1,45,0.00,,---,0.00,VWS V14.00,2013-05-12 21:05:00,
2013-05-12 17:10:00,46.0,25.4,30.03,North,0,2.9,2.9,44,0.00,,---,0.00,VWS V14.00,2013-05-12 21:10:00,
2013-05-12 17:15:00,46.2,26.1,30.06,ENE,68,2.5,2.9,45,0.00,,---,0.00,VWS V14.00,2013-05-12 21:15:00,
2013-05-12 17:20:00,46.2,26.6,30.06,SSW,202,2.0,2.9,46,0.00,,---,0.00,VWS V14.00,2013-05-12 21:20:00,
2013-05-12 17:25:00,46.4,26.8,30.06,NNW,338,1.6,4.9,46,0.00,,---,0.00,VWS V14.00,2013-05-12 21:25:00,
2013-05-12 17:30:00,46.2,25.5,30.06,NE,45,3.1,3.6,44,0.00,,---,0.00,VWS V14.00,2013-05-12 21:30:00,
2013-05-12 17:35:00,46.6,26.4,30.06,WSW,248,2.2,3.1,45,0.00,,---,0.00,VWS V14.00,2013-05-12 21:35:00,
2013-05-12 17:40:00,46.2,26.1,30.06,NE,45,2.5,5.8,45,0.00,,---,0.00,VWS V14.00,2013-05-12 21:40:00,
2013-05-12 17:45:00,46.4,25.7,30.06,WNW,292,3.1,4.3,44,0.00,,---,0.00,VWS V14.00,2013-05-12 21:45:00,
2013-05-12 17:50:00,46.8,26.6,30.06,West,270,1.3,2.7,45,0.00,,---,0.00,VWS V14.00,2013-05-12 21:50:00,
2013-05-12 17:55:00,47.3,27.6,30.06,East,90,3.8,4.9,46,0.00,,---,0.00,VWS V14.00,2013-05-12 21:55:00,
2013-05-12 18:00:00,47.7,27.4,30.06,SSW,202,2.5,3.8,45,0.00,,---,0.00,VWS V14.00,2013-05-12 22:00:00,
2013-05-12 18:05:00,47.7,26.8,30.06,South,180,3.4,3.4,44,0.00,,---,0.00,VWS V14.00,2013-05-12 22:05:00,
2013-05-12 18:10:00,47.3,26.5,30.06,WSW,248,2.0,4.7,44,0.00,,---,0.00,VWS V14.00,2013-05-12 22:10:00,
2013-05-12 18:15:00,46.8,26.0,30.03,NNE,22,4.9,4.9,44,0.00,,---,0.00,VWS V14.00,2013-05-12 22:15:00,
2013-05-12 18:20:00,46.2,25.5,30.03,SSW,202,0.0,3.6,44,0.00,,---,0.00,VWS V14.00,2013-05-12 22:20:00,
2013-05-12 18:25:00,45.9,25.2,30.03,NE,45,2.0,4.7,44,0.00,,---,0.00,VWS V14.00,2013-05-12 22:25:00,
2013-05-12 18:30:00,45.9,25.7,30.06,WSW,248,4.3,4.3,45,0.00,,---,0.00,VWS V14.00,2013-05-12 22:30:00,
2013-05-12 18:35:00,46.4,26.2,30.06,NNW,338,2.5,3.1,45,0.00,,---,0.00,VWS V14.00,2013-05-12 22:35:00,
2013-05-12 18:40:00,46.0,25.4,30.06,SE,135,2.9,5.8,44,0.00,,---,0.00,VWS V14.00,2013-05-12 22:40:00,
2013-05-12 18:45:00,46.2,25.5,30.03,SW,225,2.9,4.0,44,0.00,,---,0.00,VWS V14.00,2013-05-12 22:45:00,
2013-05-12 18:50:00,46.4,25.7,30.03,SSW,202,1.6,1.6,44,0.00,,---,0.00,VWS V14.00,2013-05-12 22:50:00,
2013-05-12 18:55:00,46.4,25.7,30.03,SW,225,2.5,6.9,44,0.00,,---,0.00,VWS V14.00,2013-05-12 22:55:00,
2013-05-12 19:00:00,46.2,25.5,30.03,ENE,68,2.5,2.5,44,0.00,,---,0.00,VWS V14.00,2013-05-12 23:00:00,
2013-05-12 19:05:00,46.4,26.2,30.03,SSW,202,1.6,1.6,45,0.00,,---,0.00,VWS V14.00,2013-05-12 23:05:00,
2013-05-12 19:10:00,46.4,26.2,30.03,North,0,1.6,1.6,45,0.00,,---,0.00,VWS V14.00,2013-05-12 23:10:00,
2013-05-12 19:15:00,46.2,26.1,30.03,SW,225,2.0,2.0,45,0.00,,---,0.00,VWS V14.00,2013-05-12 23:15:00,
2013-05-12 19:20:00,45.7,25.0,30.03,SSE,158,1.3,2.0,44,0.00,,---,0.00,VWS V14.00,2013-05-12 23:20:00,
2013-05-12 19:25:00,45.3,24.2,30.03,North,0,3.1,3.1,43,0.00,,---,0.00,VWS V14.00,2013-05-12 23:25:00,
2013-05-12 19:30:00,45.3,24.7,30.03,NE,45,0.0,1.1,44,0.00,,---,0.00,VWS V14.00,2013-05-12 23:30:00,
2013-05-12 19:35:00,44.8,24.2,30.03,ENE,68,0.0,2.2,44,0.00,,---,0.00,VWS V14.00,2013-05-12 23:35:00,
2013-05-12 19:40:00,44.6,24.0,30.03,North,0,2.7,2.7,44,0.00,,---,0.00,VWS V14.00,2013-05-12 23:40:00,
2013-05-12 19:45:00,44.4,24.4,30.06,WSW,248,2.5,2.5,45,0.00,,---,0.00,VWS V14.00,2013-05-12 23:45:00,
2013-05-12 19:50:00,44.4,23.9,30.06,NE,45,0.0,1.6,44,0.00,,---,0.00,VWS V14.00,2013-05-12 23:50:00,
2013-05-12 19:55:00,44.2,23.7,30.06,SSE,158,1.6,2.7,44,0.00,,---,0.00,VWS V14.00,2013-05-12 23:55:00,
2013-05-12 20:00:00,44.1,24.1,30.03,North,0,0.9,2.7,45,0.00,,---,0.00,VWS V14.00,2013-05-13 00:00:00,
2013-05-12 20:05:00,44.1,24.1,30.03,SW,225,0.0,2.9,45,0.00,,---,0.00,VWS V14.00,2013-05-13 00:05:00,
2013-05-12 20:10:00,43.9,24.5,30.03,West,270,0.9,1.6,46,0.00,,---,0.00,VWS V14.00,2013-05-13 00:10:00,
2013-05-12 20:15:00,43.7,24.3,30.06,WSW,248,2.0,2.0,46,0.00,,---,0.00,VWS V14.00,2013-05-13 00:15:00,
2013-05-12 20:20:00,43.5,24.1,30.06,WSW,248,0.9,2.7,46,0.00,,---,0.00,VWS V14.00,2013-05-13 00:20:00,
2013-05-12 20:25:00,43.3,24.5,30.06,WSW,248,0.0,2.0,47,0.00,,---,0.00,VWS V14.00,2013-05-13 00:25:00,
2013-05-12 20:30:00,43.2,23.8,30.06,WSW,248,0.0,0.0,46,0.00,,---,0.00,VWS V14.00,2013-05-13 00:30:00,
2013-05-12 20:35:00,43.0,24.1,30.06,WSW,248,0.0,0.0,47,0.00,,---,0.00,VWS V14.00,2013-05-13 00:35:00,
2013-05-12 20:40:00,42.8,24.5,30.06,WSW,248,0.0,0.0,48,0.00,,---,0.00,VWS V14.00,2013-05-13 00:40:00,
2013-05-12 20:45:00,42.4,24.1,30.06,West,270,0.0,2.5,48,0.00,,---,0.00,VWS V14.00,2013-05-13 00:45:00,
2013-05-12 20:50:00,42.3,24.0,30.06,SW,225,0.0,0.0,48,0.00,,---,0.00,VWS V14.00,2013-05-13 00:50:00,
2013-05-12 20:55:00,42.1,24.3,30.06,SW,225,0.0,0.0,49,0.00,,---,0.00,VWS V14.00,2013-05-13 00:55:00,
2013-05-12 21:00:00,41.7,24.5,30.06,SW,225,0.0,0.0,50,0.00,,---,0.00,VWS V14.00,2013-05-13 01:00:00,
2013-05-12 21:05:00,41.5,24.3,30.06,SW,225,0.0,0.0,50,0.00,,---,0.00,VWS V14.00,2013-05-13 01:05:00,
2013-05-12 21:10:00,41.2,24.4,30.06,SW,225,0.0,0.0,51,0.00,,---,0.00,VWS V14.00,2013-05-13 01:10:00,
2013-05-12 21:15:00,41.0,24.3,30.06,SW,225,0.0,0.0,51,0.00,,---,0.00,VWS V14.00,2013-05-13 01:15:00,
2013-05-12 21:20:00,40.6,24.4,30.06,SW,225,0.0,0.0,52,0.00,,---,0.00,VWS V14.00,2013-05-13 01:20:00,
2013-05-12 21:25:00,40.3,24.1,30.06,SW,225,0.0,0.0,52,0.00,,---,0.00,VWS V14.00,2013-05-13 01:25:00,
2013-05-12 21:30:00,39.9,24.2,30.06,SW,225,0.0,0.0,53,0.00,,---,0.00,VWS V14.00,2013-05-13 01:30:00,
2013-05-12 21:35:00,39.4,23.7,30.06,SW,225,0.0,0.0,53,0.00,,---,0.00,VWS V14.00,2013-05-13 01:35:00,
2013-05-12 21:40:00,39.2,24.4,30.06,SW,225,0.0,0.0,55,0.00,,---,0.00,VWS V14.00,2013-05-13 01:40:00,
2013-05-12 21:45:00,39.0,24.7,30.06,SW,225,0.0,0.0,56,0.00,,---,0.00,VWS V14.00,2013-05-13 01:45:00,
2013-05-12 21:50:00,38.7,24.3,30.06,SW,225,0.0,0.0,56,0.00,,---,0.00,VWS V14.00,2013-05-13 01:50:00,
2013-05-12 21:55:00,38.5,24.6,30.06,SW,225,0.0,0.0,57,0.00,,---,0.00,VWS V14.00,2013-05-13 01:55:00,
2013-05-12 22:00:00,38.1,24.2,30.09,SW,225,0.0,0.0,57,0.00,,---,0.00,VWS V14.00,2013-05-13 02:00:00,
2013-05-12 22:06:00,37.9,24.5,30.09,SW,225,0.0,0.0,58,0.00,,---,0.00,VWS V14.00,2013-05-13 02:06:00,
2013-05-12 22:11:00,37.8,24.3,30.09,SW,225,0.0,0.0,58,0.00,,---,0.00,VWS V14.00,2013-05-13 02:11:00,
2013-05-12 22:16:00,37.4,24.4,30.09,SW,225,0.0,0.0,59,0.00,,---,0.00,VWS V14.00,2013-05-13 02:16:00,
2013-05-12 22:21:00,37.2,25.0,30.09,SW,225,0.0,0.0,61,0.00,,---,0.00,VWS V14.00,2013-05-13 02:21:00,
2013-05-12 22:26:00,37.0,24.9,30.09,SW,225,0.0,0.0,61,0.00,,---,0.00,VWS V14.00,2013-05-13 02:26:00,
2013-05-12 22:31:00,36.9,25.1,30.09,SW,225,0.0,0.0,62,0.00,,---,0.00,VWS V14.00,2013-05-13 02:31:00,
2013-05-12 22:36:00,36.7,25.3,30.09,SW,225,0.0,0.0,63,0.00,,---,0.00,VWS V14.00,2013-05-13 02:36:00,
2013-05-12 22:41:00,36.5,25.1,30.09,SW,225,0.0,0.0,63,0.00,,---,0.00,VWS V14.00,2013-05-13 02:41:00,
2013-05-12 22:46:00,36.5,25.5,30.09,SW,225,0.0,0.0,64,0.00,,---,0.00,VWS V14.00,2013-05-13 02:46:00,
2013-05-12 22:51:00,36.3,25.7,30.09,SW,225,0.0,0.0,65,0.00,,---,0.00,VWS V14.00,2013-05-13 02:51:00,
2013-05-12 22:56:00,36.1,25.9,30.09,SW,225,0.0,0.0,66,0.00,,---,0.00,VWS V14.00,2013-05-13 02:56:00,
2013-05-12 23:01:00,36.0,25.7,30.09,SW,225,0.0,0.0,66,0.00,,---,0.00,VWS V14.00,2013-05-13 03:01:00,
2013-05-12 23:06:00,35.8,25.9,30.09,SW,225,0.0,0.0,67,0.00,,---,0.00,VWS V14.00,2013-05-13 03:06:00,
2013-05-12 23:11:00,35.8,25.9,30.09,SW,225,0.0,0.0,67,0.00,,---,0.00,VWS V14.00,2013-05-13 03:11:00,
2013-05-12 23:16:00,35.8,25.9,30.12,SW,225,0.0,0.0,67,0.00,,---,0.00,VWS V14.00,2013-05-13 03:16:00,
2013-05-12 23:21:00,35.6,26.1,30.12,SW,225,0.0,0.0,68,0.00,,---,0.00,VWS V14.00,2013-05-13 03:21:00,
2013-05-12 23:26:00,35.6,26.1,30.12,SW,225,0.0,0.0,68,0.00,,---,0.00,VWS V14.00,2013-05-13 03:26:00,
2013-05-12 23:31:00,35.4,26.3,30.12,SW,225,0.0,0.0,69,0.00,,---,0.00,VWS V14.00,2013-05-13 03:31:00,
2013-05-12 23:36:00,35.4,26.3,30.12,SW,225,0.0,0.0,69,0.00,,---,0.00,VWS V14.00,2013-05-13 03:36:00,
2013-05-12 23:41:00,35.2,26.5,30.12,SW,225,0.0,0.0,70,0.00,,---,0.00,VWS V14.00,2013-05-13 03:41:00,
2013-05-12 23:46:00,35.2,26.5,30.12,SW,225,0.0,0.0,70,0.00,,---,0.00,VWS V14.00,2013-05-13 03:46:00,
2013-05-12 23:51:00,35.1,26.3,30.12,SW,225,0.0,0.0,70,0.00,,---,0.00,VWS V14.00,2013-05-13 03:51:00,
2013-05-12 23:56:00,35.1,26.6,30.12,SW,225,0.0,0.0,71,0.00,,---,0.00,VWS V14.00,2013-05-13 03:56:00,